Time;durP1;ratioP1;P1;durP2;ratioP2;P2;SDS_P1;SDS_P2;PMS_P1;PMS_P2;Temp;Humidity;BMP_temperature;BMP_pressure;BME280_temperature;BME280_humidity;BME280_pressure;Samples;Min_cycle;Max_cycle;Signal;HPM_P1;HPM_P2
2021/11/25 00:01:51;;;;;;;4.45;1.58;;;8.90;99.90;;;;;;4888522;29;20504;-72
2021/11/25 00:04:18;;;;;;;6.13;2.03;;;8.90;99.90;;;;;;4889269;29;20028;-71
2021/11/25 00:06:44;;;;;;;7.07;1.90;;;8.90;99.90;;;;;;4890157;29;20071;-72
2021/11/25 00:09:10;;;;;;;10.05;1.83;;;8.80;99.90;;;;;;4889394;29;20247;-71
2021/11/25 00:11:36;;;;;;;6.95;1.50;;;8.80;99.90;;;;;;4889033;29;20037;-71
2021/11/25 00:14:02;;;;;;;12.98;2.25;;;8.90;99.90;;;;;;4890225;29;20271;-72
2021/11/25 00:16:28;;;;;;;7.70;1.92;;;8.90;99.90;;;;;;4888003;29;20045;-71
2021/11/25 00:18:55;;;;;;;8.38;1.95;;;8.90;99.90;;;;;;4889337;29;20021;-72
2021/11/25 00:21:21;;;;;;;10.90;2.28;;;8.90;99.90;;;;;;4889522;29;20374;-72
2021/11/25 00:23:48;;;;;;;13.50;2.85;;;8.90;99.90;;;;;;4888517;29;20409;-72
2021/11/25 00:26:15;;;;;;;10.32;1.88;;;9.00;99.90;;;;;;4889250;29;20047;-71
2021/11/25 00:28:42;;;;;;;7.97;1.60;;;8.90;99.90;;;;;;4889261;29;20051;-71
2021/11/25 00:31:07;;;;;;;13.52;1.67;;;8.90;99.90;;;;;;4889638;29;20036;-71
2021/11/25 00:33:34;;;;;;;9.20;1.65;;;8.90;99.90;;;;;;4889206;29;20111;-71
2021/11/25 00:36:00;;;;;;;11.48;1.73;;;8.80;99.90;;;;;;4889211;29;20037;-71
2021/11/25 00:38:27;;;;;;;11.00;1.73;;;8.80;99.90;;;;;;4888317;29;20044;-72
2021/11/25 00:40:53;;;;;;;6.45;1.50;;;8.90;99.90;;;;;;4888550;29;20032;-71
2021/11/25 00:43:21;;;;;;;6.43;2.15;;;8.90;99.90;;;;;;4887218;29;20087;-71
2021/11/25 00:45:47;;;;;;;12.38;2.13;;;9.00;99.90;;;;;;4887879;29;20342;-71
2021/11/25 00:48:14;;;;;;;7.95;2.05;;;9.00;99.90;;;;;;4888727;29;20041;-71
2021/11/25 00:50:40;;;;;;;9.60;1.80;;;9.00;99.90;;;;;;4889441;29;20127;-72
2021/11/25 00:53:06;;;;;;;9.98;1.88;;;9.10;99.90;;;;;;4888487;29;20123;-71
2021/11/25 00:55:32;;;;;;;13.95;1.95;;;9.10;99.90;;;;;;4888695;29;20068;-72
2021/11/25 00:57:58;;;;;;;10.25;1.83;;;9.10;99.90;;;;;;4888746;29;20021;-72
2021/11/25 01:00:24;;;;;;;6.88;2.10;;;9.00;99.90;;;;;;4888630;29;20062;-72
2021/11/25 01:02:50;;;;;;;11.30;2.83;;;9.00;99.90;;;;;;4888093;29;20035;-71
2021/11/25 01:05:18;;;;;;;10.20;2.10;;;9.00;99.90;;;;;;4889202;29;20040;-71
2021/11/25 01:07:45;;;;;;;10.00;2.30;;;9.00;99.90;;;;;;4889087;29;20032;-72
2021/11/25 01:10:14;;;;;;;10.13;1.98;;;9.00;99.90;;;;;;4888989;29;20045;-72
2021/11/25 01:12:41;;;;;;;15.95;2.33;;;9.00;99.90;;;;;;4887989;29;20442;-72
2021/11/25 01:15:10;;;;;;;10.05;2.00;;;9.00;99.90;;;;;;4887771;29;20064;-72
2021/11/25 01:17:39;;;;;;;15.27;2.58;;;9.00;99.90;;;;;;4888021;29;20108;-72
2021/11/25 01:20:12;;;;;;;13.15;2.20;;;8.90;99.90;;;;;;4888266;29;20363;-72
2021/11/25 01:22:38;;;;;;;12.32;2.78;;;8.90;99.90;;;;;;4888873;29;20339;-72
2021/11/25 01:25:06;;;;;;;11.20;2.60;;;8.80;99.90;;;;;;4888225;29;20251;-72
2021/11/25 01:27:32;;;;;;;7.38;1.75;;;8.90;99.90;;;;;;4888035;29;20510;-72
2021/11/25 01:29:58;;;;;;;8.35;1.80;;;8.80;99.90;;;;;;4888449;29;20037;-71
2021/11/25 01:32:23;;;;;;;11.07;2.42;;;8.80;99.90;;;;;;4888373;29;20222;-72
2021/11/25 01:34:49;;;;;;;9.43;1.90;;;8.80;99.90;;;;;;4888093;29;20068;-71
2021/11/25 01:37:15;;;;;;;6.38;1.27;;;8.80;99.90;;;;;;4885756;29;20064;-72
2021/11/25 01:39:41;;;;;;;12.82;2.58;;;8.80;99.90;;;;;;4887511;29;20319;-72
2021/11/25 01:42:07;;;;;;;6.57;1.60;;;8.80;99.90;;;;;;4888234;29;20036;-72
2021/11/25 01:44:33;;;;;;;5.10;2.13;;;8.80;99.90;;;;;;4889554;29;20076;-72
2021/11/25 01:47:05;;;;;;;12.23;2.15;;;8.80;99.90;;;;;;4888714;29;20033;-72
2021/11/25 01:49:31;;;;;;;8.80;1.83;;;8.80;99.90;;;;;;4887976;29;20053;-72
2021/11/25 01:51:58;;;;;;;9.82;2.33;;;8.90;99.90;;;;;;4888174;29;20033;-72
2021/11/25 01:54:24;;;;;;;8.77;1.80;;;8.90;99.90;;;;;;4889030;29;20033;-72
2021/11/25 01:56:51;;;;;;;11.60;2.00;;;8.80;99.90;;;;;;4887724;29;20115;-72
2021/11/25 01:59:17;;;;;;;9.98;1.70;;;8.90;99.90;;;;;;4888510;29;20032;-72
2021/11/25 02:01:43;;;;;;;10.15;1.85;;;8.90;99.90;;;;;;4888302;29;20028;-72
2021/11/25 02:04:09;;;;;;;6.35;1.52;;;8.90;99.90;;;;;;4886620;29;20264;-73
2021/11/25 02:06:35;;;;;;;4.72;1.27;;;8.80;99.90;;;;;;4888229;29;20036;-73
2021/11/25 02:09:04;;;;;;;2.40;0.88;;;8.80;99.90;;;;;;4887853;29;20111;-74
2021/11/25 02:11:30;;;;;;;3.28;0.60;;;8.70;99.90;;;;;;4888604;29;20029;-74
2021/11/25 02:13:56;;;;;;;2.92;0.70;;;8.70;99.90;;;;;;4887945;29;20028;-74
2021/11/25 02:16:22;;;;;;;3.05;0.70;;;8.70;99.90;;;;;;4876644;29;20081;-74
2021/11/25 02:18:48;;;;;;;5.47;1.27;;;8.70;99.90;;;;;;4887740;29;20021;-73
2021/11/25 02:21:15;;;;;;;3.75;0.73;;;8.70;99.90;;;;;;4887988;29;20073;-74
2021/11/25 02:23:41;;;;;;;4.10;0.80;;;8.60;99.90;;;;;;4887849;29;20343;-73
2021/11/25 02:26:07;;;;;;;5.18;0.90;;;8.60;99.90;;;;;;4888158;29;20041;-73
2021/11/25 02:28:36;;;;;;;6.03;1.35;;;8.70;99.90;;;;;;4890235;29;20375;-73
2021/11/25 02:31:03;;;;;;;5.00;0.88;;;8.60;99.90;;;;;;4891404;29;20036;-73
2021/11/25 02:33:29;;;;;;;7.43;1.05;;;8.60;99.90;;;;;;4891122;29;20299;-73
2021/11/25 02:35:56;;;;;;;7.55;1.40;;;8.70;99.90;;;;;;4890882;29;20389;-73
2021/11/25 02:38:22;;;;;;;8.55;1.02;;;8.70;99.90;;;;;;4873836;29;20442;-73
2021/11/25 02:40:51;;;;;;;7.82;1.08;;;8.70;99.90;;;;;;4891637;29;20024;-73
2021/11/25 02:43:20;;;;;;;4.20;0.90;;;8.70;99.90;;;;;;4891504;29;20350;-73
2021/11/25 02:45:48;;;;;;;7.20;1.73;;;8.60;99.90;;;;;;4891762;29;20231;-73
2021/11/25 02:48:16;;;;;;;6.05;1.10;;;8.60;99.90;;;;;;4890782;29;20088;-73
2021/11/25 02:50:43;;;;;;;4.93;0.77;;;8.60;99.90;;;;;;4891093;29;20327;-73
2021/11/25 02:53:12;;;;;;;7.80;0.98;;;8.60;99.90;;;;;;4890925;29;20131;-73
2021/11/25 02:55:38;;;;;;;8.43;1.48;;;8.50;99.90;;;;;;4888913;29;20033;-73
2021/11/25 02:58:04;;;;;;;3.80;1.00;;;8.50;99.90;;;;;;4891563;29;20095;-73
2021/11/25 03:00:35;;;;;;;7.80;1.10;;;8.50;99.90;;;;;;4890927;29;20223;-73
2021/11/25 03:03:05;;;;;;;5.38;1.17;;;8.50;99.90;;;;;;4874496;29;20028;-73
2021/11/25 03:05:31;;;;;;;7.40;1.80;;;8.40;99.90;;;;;;4880794;29;20033;-73
2021/11/25 03:08:00;;;;;;;5.65;1.00;;;8.40;99.90;;;;;;4889960;29;20036;-74
2021/11/25 03:10:26;;;;;;;5.60;1.10;;;8.50;99.90;;;;;;4890715;29;20366;-73
2021/11/25 03:12:52;;;;;;;4.72;1.10;;;8.50;99.90;;;;;;4890052;29;20048;-73
2021/11/25 03:15:18;;;;;;;3.22;0.93;;;8.40;99.90;;;;;;4888880;29;20039;-73
2021/11/25 03:17:44;;;;;;;4.72;1.05;;;8.40;99.90;;;;;;4891867;29;20033;-73
2021/11/25 03:20:12;;;;;;;5.18;0.80;;;8.40;99.90;;;;;;4890449;29;20056;-73
2021/11/25 03:22:38;;;;;;;8.57;1.05;;;8.40;99.90;;;;;;4889804;29;20055;-73
2021/11/25 03:25:05;;;;;;;6.05;1.10;;;8.30;99.90;;;;;;4873056;29;20064;-73
2021/11/25 03:27:30;;;;;;;3.03;0.88;;;8.30;99.90;;;;;;4890864;29;20227;-73
2021/11/25 03:29:56;;;;;;;6.60;1.48;;;8.30;99.90;;;;;;4890849;29;20037;-73
2021/11/25 03:32:22;;;;;;;5.57;1.00;;;8.20;99.90;;;;;;4889843;29;20024;-73
2021/11/25 03:34:48;;;;;;;6.03;1.48;;;8.20;99.90;;;;;;4889923;29;20033;-73
2021/11/25 03:37:14;;;;;;;8.18;1.60;;;8.20;99.90;;;;;;4890618;29;20119;-73
2021/11/25 03:39:40;;;;;;;6.50;1.33;;;8.30;99.90;;;;;;4888946;29;20286;-73
2021/11/25 03:42:06;;;;;;;8.93;1.00;;;8.30;99.90;;;;;;4889716;29;20043;-73
2021/11/25 03:44:32;;;;;;;3.63;0.93;;;8.20;99.90;;;;;;4888332;29;20172;-73
2021/11/25 03:46:58;;;;;;;16.98;1.95;;;8.20;99.90;;;;;;4889778;29;20043;-73
2021/11/25 03:49:24;;;;;;;8.27;1.20;;;8.20;99.90;;;;;;4889671;29;20032;-73
2021/11/25 03:51:50;;;;;;;3.30;0.95;;;8.20;99.90;;;;;;4889628;29;20038;-73
2021/11/25 03:54:15;;;;;;;6.05;0.88;;;8.10;99.90;;;;;;4889163;29;20115;-73
2021/11/25 03:56:41;;;;;;;4.13;1.00;;;8.10;99.90;;;;;;4889703;29;20033;-73
2021/11/25 03:59:07;;;;;;;3.53;0.90;;;8.20;99.90;;;;;;4889860;29;20029;-73
2021/11/25 04:01:33;;;;;;;5.32;0.93;;;8.10;99.90;;;;;;4890200;29;20042;-73
2021/11/25 04:03:59;;;;;;;4.63;0.80;;;8.20;99.90;;;;;;4889111;29;20107;-73
2021/11/25 04:06:25;;;;;;;6.93;1.38;;;8.10;99.90;;;;;;4890082;29;20104;-73
2021/11/25 04:08:51;;;;;;;7.30;1.08;;;8.10;99.90;;;;;;4889700;29;20043;-73
2021/11/25 04:11:17;;;;;;;5.35;1.15;;;8.20;99.90;;;;;;4889421;29;20293;-73
2021/11/25 04:13:42;;;;;;;6.90;1.38;;;8.20;99.90;;;;;;4889799;29;20021;-72
2021/11/25 04:16:08;;;;;;;7.35;1.10;;;8.20;99.90;;;;;;4889044;29;20107;-72
2021/11/25 04:18:34;;;;;;;8.95;1.10;;;8.30;99.90;;;;;;4889492;29;20033;-73
2021/11/25 04:21:00;;;;;;;5.70;1.42;;;8.20;99.90;;;;;;4889665;29;20108;-73
2021/11/25 04:23:26;;;;;;;6.82;1.60;;;8.20;99.90;;;;;;4888552;29;20048;-73
2021/11/25 04:25:52;;;;;;;7.07;1.30;;;8.30;99.90;;;;;;4889343;29;20041;-72
2021/11/25 04:28:18;;;;;;;10.20;1.42;;;8.30;99.90;;;;;;4888906;29;20529;-73
2021/11/25 04:35:55;;;;;;;7.90;1.83;;;8.20;99.90;;;;;;4888714;29;20762;-73
2021/11/25 04:38:22;;;;;;;22.17;1.90;;;8.30;99.90;;;;;;4888517;29;20035;-73
2021/11/25 04:40:56;;;;;;;8.77;1.83;;;8.30;99.90;;;;;;4889324;29;20276;-73
2021/11/25 04:43:23;;;;;;;12.48;1.58;;;8.30;99.90;;;;;;4888321;29;20318;-73
2021/11/25 04:45:51;;;;;;;21.05;2.00;;;8.20;99.90;;;;;;4890487;29;20036;-73
2021/11/25 04:48:19;;;;;;;8.70;1.90;;;8.20;99.90;;;;;;4888575;29;20100;-73
2021/11/25 04:50:45;;;;;;;10.98;2.08;;;8.30;99.90;;;;;;4887834;29;20036;-73
2021/11/25 04:53:12;;;;;;;12.80;2.20;;;8.20;99.90;;;;;;4888967;29;20036;-73
2021/11/25 04:55:39;;;;;;;10.40;1.30;;;8.20;99.90;;;;;;4888743;29;20361;-73
2021/11/25 04:58:06;;;;;;;12.68;1.73;;;8.10;99.90;;;;;;4887910;29;20032;-74
2021/11/25 05:00:32;;;;;;;11.93;2.90;;;8.20;99.90;;;;;;4889328;29;20448;-69
2021/11/25 05:02:57;;;;;;;15.02;2.33;;;8.30;99.90;;;;;;4887471;29;20056;-69
2021/11/25 05:05:25;;;;;;;9.95;1.92;;;8.20;99.90;;;;;;4888163;29;20315;-69
2021/11/25 05:07:51;;;;;;;10.23;1.88;;;8.20;99.90;;;;;;4887382;29;20337;-69
2021/11/25 05:10:17;;;;;;;10.23;1.92;;;8.10;99.90;;;;;;4886923;29;20445;-69
2021/11/25 05:12:43;;;;;;;11.32;1.75;;;8.00;99.90;;;;;;4884920;29;20088;-69
2021/11/25 05:15:12;;;;;;;16.75;2.58;;;7.90;99.90;;;;;;4887483;29;20040;-69
2021/11/25 05:17:39;;;;;;;10.85;1.92;;;8.00;99.90;;;;;;4888153;29;20343;-71
2021/11/25 05:20:07;;;;;;;16.75;2.45;;;8.00;99.90;;;;;;4887135;29;20484;-71
2021/11/25 05:22:33;;;;;;;15.82;2.05;;;8.00;99.90;;;;;;4887933;29;20444;-71
2021/11/25 05:24:59;;;;;;;15.57;2.22;;;7.90;99.90;;;;;;4889331;29;20200;-71
2021/11/25 05:27:25;;;;;;;14.65;1.85;;;7.80;99.90;;;;;;4888301;29;20247;-71
2021/11/25 05:29:51;;;;;;;13.15;1.80;;;7.80;99.90;;;;;;4888216;29;20043;-71
2021/11/25 05:32:17;;;;;;;17.92;2.92;;;7.80;99.90;;;;;;4887593;29;20029;-71
2021/11/25 05:34:47;;;;;;;10.13;1.88;;;7.70;99.90;;;;;;4888878;29;20033;-71
2021/11/25 05:37:14;;;;;;;17.10;2.65;;;7.80;99.90;;;;;;4889120;29;20052;-71
2021/11/25 05:39:40;;;;;;;17.83;2.30;;;7.80;99.90;;;;;;4887812;29;20099;-71
2021/11/25 05:42:06;;;;;;;14.60;2.55;;;7.70;99.90;;;;;;4888791;29;20127;-71
2021/11/25 05:44:32;;;;;;;17.40;3.15;;;7.70;99.90;;;;;;4889033;29;20028;-71
2021/11/25 05:46:57;;;;;;;12.63;2.47;;;7.70;99.90;;;;;;4889106;29;20036;-71
2021/11/25 05:49:23;;;;;;;13.68;1.83;;;7.70;99.90;;;;;;4886277;29;20033;-71
2021/11/25 05:51:49;;;;;;;18.05;2.35;;;7.70;99.90;;;;;;4887365;29;20507;-71
2021/11/25 05:54:15;;;;;;;18.20;2.30;;;7.70;99.90;;;;;;4885618;29;20203;-71
2021/11/25 05:56:41;;;;;;;10.77;2.53;;;7.70;99.90;;;;;;4867842;29;20044;-70
2021/11/25 05:59:07;;;;;;;13.95;2.42;;;7.70;99.90;;;;;;4887969;29;20040;-71
2021/11/25 06:01:33;;;;;;;15.48;1.88;;;7.60;99.90;;;;;;4887799;29;20064;-71
2021/11/25 06:03:58;;;;;;;12.48;1.85;;;7.60;99.90;;;;;;4890123;29;20131;-71
2021/11/25 06:06:24;;;;;;;15.30;2.53;;;7.60;99.90;;;;;;4890730;29;20029;-71
2021/11/25 06:08:50;;;;;;;16.35;2.10;;;7.60;99.90;;;;;;4891686;29;20080;-71
2021/11/25 06:11:17;;;;;;;14.55;2.72;;;7.60;99.90;;;;;;4891697;29;20320;-71
2021/11/25 06:13:43;;;;;;;10.38;2.15;;;7.60;99.90;;;;;;4892369;29;20338;-71
2021/11/25 06:16:09;;;;;;;9.75;1.90;;;7.60;99.90;;;;;;4890777;29;20048;-71
2021/11/25 06:18:35;;;;;;;9.77;2.10;;;7.50;99.90;;;;;;4891546;29;20055;-71
2021/11/25 06:21:02;;;;;;;14.07;2.92;;;7.60;99.90;;;;;;4891246;29;20043;-71
2021/11/25 06:23:28;;;;;;;8.98;1.95;;;7.50;99.90;;;;;;4892864;29;20089;-71
2021/11/25 06:25:54;;;;;;;13.38;2.25;;;7.50;99.90;;;;;;4891827;29;20095;-71
2021/11/25 06:28:20;;;;;;;10.45;1.90;;;7.60;99.90;;;;;;4891476;29;20053;-71
2021/11/25 06:30:46;;;;;;;14.75;1.70;;;7.50;99.90;;;;;;4890123;29;20100;-71
2021/11/25 06:33:12;;;;;;;14.10;2.05;;;7.50;99.90;;;;;;4891753;29;20043;-71
2021/11/25 06:35:38;;;;;;;9.85;2.30;;;7.50;99.90;;;;;;4891068;29;20395;-71
2021/11/25 06:38:04;;;;;;;9.57;2.40;;;7.50;99.90;;;;;;4890513;29;20036;-71
2021/11/25 06:40:33;;;;;;;14.77;2.38;;;7.50;99.90;;;;;;4892083;29;20033;-71
2021/11/25 06:43:02;;;;;;;13.23;2.28;;;7.50;99.90;;;;;;4891039;29;20028;-71
2021/11/25 06:45:28;;;;;;;10.73;2.35;;;7.50;99.90;;;;;;4890113;29;20032;-71
2021/11/25 06:47:54;;;;;;;10.73;2.92;;;7.60;99.90;;;;;;4889431;29;20028;-71
2021/11/25 06:50:22;;;;;;;14.50;2.55;;;7.50;99.90;;;;;;4889211;29;20112;-71
2021/11/25 06:52:49;;;;;;;15.07;2.92;;;7.50;99.90;;;;;;4890801;29;20391;-71
2021/11/25 06:55:16;;;;;;;12.95;2.00;;;7.50;99.90;;;;;;4891982;29;20325;-71
2021/11/25 06:57:47;;;;;;;6.13;1.90;;;7.60;99.90;;;;;;4891430;29;20348;-71
2021/11/25 07:00:15;;;;;;;10.98;2.38;;;7.50;99.90;;;;;;4888918;29;20040;-71
2021/11/25 07:02:42;;;;;;;13.57;1.85;;;7.50;99.90;;;;;;4890724;29;20032;-71
2021/11/25 07:05:08;;;;;;;8.65;1.98;;;7.40;99.90;;;;;;4890156;29;20043;-71
2021/11/25 07:07:35;;;;;;;17.23;2.35;;;7.50;99.90;;;;;;4889431;29;20108;-71
2021/11/25 07:10:03;;;;;;;14.27;2.05;;;7.40;99.90;;;;;;4890143;29;20033;-71
2021/11/25 07:12:29;;;;;;;11.73;1.60;;;7.40;99.90;;;;;;4889407;29;20033;-71
2021/11/25 07:14:54;;;;;;;15.13;2.15;;;7.30;99.90;;;;;;4889566;29;20088;-71
2021/11/25 07:17:20;;;;;;;18.77;2.78;;;7.30;99.90;;;;;;4890733;29;20041;-71
2021/11/25 07:19:46;;;;;;;8.35;1.55;;;7.30;99.90;;;;;;4890976;29;20223;-71
2021/11/25 07:22:12;;;;;;;7.45;1.42;;;7.20;99.90;;;;;;4889566;29;20041;-71
2021/11/25 07:24:38;;;;;;;9.85;1.67;;;7.20;99.90;;;;;;4889914;29;20136;-71
2021/11/25 07:27:04;;;;;;;10.93;1.80;;;7.20;99.90;;;;;;4890046;29;20063;-71
2021/11/25 07:29:30;;;;;;;13.70;2.53;;;7.10;99.90;;;;;;4890672;29;20059;-70
2021/11/25 07:31:56;;;;;;;11.48;1.83;;;7.00;99.90;;;;;;4889467;29;20056;-70
2021/11/25 07:34:22;;;;;;;8.98;1.60;;;7.00;99.90;;;;;;4889098;29;20153;-71
2021/11/25 07:36:48;;;;;;;15.82;2.28;;;7.00;99.90;;;;;;4890043;29;20040;-71
2021/11/25 07:39:14;;;;;;;11.82;2.40;;;6.90;99.90;;;;;;4888548;29;20040;-71
2021/11/25 07:41:40;;;;;;;10.65;1.75;;;6.90;99.90;;;;;;4891596;29;20111;-71
2021/11/25 07:44:07;;;;;;;15.10;2.38;;;6.80;99.90;;;;;;4889341;29;20055;-71
2021/11/25 07:46:35;;;;;;;14.98;2.63;;;6.80;99.90;;;;;;4889805;29;20108;-71
2021/11/25 07:49:02;;;;;;;7.72;1.83;;;6.80;99.90;;;;;;4890311;29;20223;-71
2021/11/25 07:51:32;;;;;;;13.35;1.77;;;6.80;99.90;;;;;;4889668;29;20037;-71
2021/11/25 07:54:00;;;;;;;16.00;2.78;;;6.80;99.90;;;;;;4890729;29;20089;-71
2021/11/25 07:56:26;;;;;;;10.35;2.13;;;6.70;99.90;;;;;;4888743;29;20276;-71
2021/11/25 07:58:52;;;;;;;13.85;2.05;;;6.70;99.90;;;;;;4888963;29;20088;-71
2021/11/25 08:01:18;;;;;;;12.52;2.10;;;6.70;99.90;;;;;;4875018;29;20036;-71
2021/11/25 08:03:43;;;;;;;13.30;1.42;;;6.80;99.90;;;;;;4890657;29;20550;-71
2021/11/25 08:06:09;;;;;;;10.43;1.45;;;6.80;99.90;;;;;;4889084;29;20033;-71
2021/11/25 08:08:35;;;;;;;13.43;2.20;;;6.90;99.90;;;;;;4891900;29;20446;-71
2021/11/25 08:11:03;;;;;;;11.80;2.33;;;6.90;99.90;;;;;;4889254;29;20116;-71
2021/11/25 08:13:31;;;;;;;7.55;1.48;;;6.90;99.90;;;;;;4887944;29;20072;-70
2021/11/25 08:15:57;;;;;;;12.35;1.45;;;6.80;99.90;;;;;;4888233;29;20238;-70
2021/11/25 08:18:23;;;;;;;12.85;2.00;;;6.90;99.90;;;;;;4887626;29;20028;-71
2021/11/25 08:20:49;;;;;;;9.38;2.50;;;6.80;99.90;;;;;;4889202;29;20255;-71
2021/11/25 08:23:15;;;;;;;7.50;2.17;;;6.90;99.90;;;;;;4890605;29;20128;-70
2021/11/25 08:25:42;;;;;;;13.10;1.55;;;7.00;99.90;;;;;;4888733;29;20036;-70
2021/11/25 08:28:08;;;;;;;9.73;1.73;;;7.20;99.90;;;;;;4889532;29;20040;-70
2021/11/25 08:30:34;;;;;;;9.13;2.17;;;7.40;99.90;;;;;;4888219;29;20020;-70
2021/11/25 08:33:00;;;;;;;13.30;2.53;;;7.50;99.90;;;;;;4890215;29;20037;-70
2021/11/25 08:35:26;;;;;;;8.52;2.25;;;7.50;99.90;;;;;;4890323;29;20036;-70
2021/11/25 08:37:53;;;;;;;13.07;1.67;;;7.40;99.90;;;;;;4889715;29;20300;-70
2021/11/25 08:40:19;;;;;;;13.43;2.15;;;7.30;99.90;;;;;;4872706;29;20043;-70
2021/11/25 08:42:47;;;;;;;11.43;2.20;;;7.30;99.90;;;;;;4888262;29;20040;-70
2021/11/25 08:45:14;;;;;;;11.15;2.13;;;7.30;99.90;;;;;;4887999;29;20055;-70
2021/11/25 08:47:41;;;;;;;8.82;2.17;;;7.30;99.90;;;;;;4890450;29;20036;-70
2021/11/25 08:50:09;;;;;;;6.25;1.67;;;7.20;99.90;;;;;;4887103;29;20044;-70
2021/11/25 08:52:36;;;;;;;7.18;1.50;;;7.20;99.90;;;;;;4887739;29;20235;-70
2021/11/25 08:55:02;;;;;;;8.68;1.38;;;7.20;99.90;;;;;;4888890;29;20363;-70
2021/11/25 08:57:31;;;;;;;6.63;1.55;;;7.60;99.90;;;;;;4887535;29;20040;-70
2021/11/25 08:59:56;;;;;;;9.20;1.80;;;7.90;99.90;;;;;;4887796;29;20028;-70
2021/11/25 09:02:23;;;;;;;8.38;1.30;;;8.30;99.90;;;;;;4888679;29;20082;-70
2021/11/25 09:04:48;;;;;;;10.80;1.92;;;9.10;99.90;;;;;;4888388;29;20059;-70
2021/11/25 09:07:14;;;;;;;11.50;1.75;;;9.40;99.90;;;;;;4887690;29;20337;-70
2021/11/25 09:09:40;;;;;;;9.98;2.20;;;9.10;99.90;;;;;;4888881;29;20033;-71
2021/11/25 09:12:07;;;;;;;16.50;1.77;;;9.30;99.90;;;;;;4889470;29;20033;-70
2021/11/25 09:14:33;;;;;;;15.57;2.10;;;9.40;99.90;;;;;;4887584;29;20035;-70
2021/11/25 09:16:59;;;;;;;11.15;2.47;;;9.40;99.90;;;;;;4887797;29;20044;-71
2021/11/25 09:19:24;;;;;;;8.55;1.60;;;10.10;99.90;;;;;;4889557;29;20036;-71
2021/11/25 09:21:50;;;;;;;6.93;1.48;;;11.20;99.90;;;;;;4888056;29;20067;-71
2021/11/25 09:24:17;;;;;;;10.07;2.10;;;12.10;99.90;;;;;;4886507;29;20275;-71
2021/11/25 09:26:44;;;;;;;11.32;1.83;;;12.80;99.90;;;;;;4888909;29;20037;-71
2021/11/25 09:29:10;;;;;;;10.05;1.95;;;13.20;99.90;;;;;;4887685;29;20036;-71
2021/11/25 09:31:37;;;;;;;11.15;1.73;;;13.60;99.90;;;;;;4887464;29;20084;-70
2021/11/25 09:34:04;;;;;;;11.80;2.00;;;13.80;99.90;;;;;;4887364;29;20021;-71
2021/11/25 09:36:34;;;;;;;8.40;1.85;;;13.90;99.90;;;;;;4890113;29;20081;-70
2021/11/25 09:39:02;;;;;;;5.88;1.23;;;14.10;99.90;;;;;;4892949;29;20239;-70
2021/11/25 09:41:28;;;;;;;10.80;2.03;;;14.40;99.90;;;;;;4891590;29;20043;-70
2021/11/25 09:43:54;;;;;;;8.68;1.30;;;14.50;99.90;;;;;;4892826;29;20024;-70
2021/11/25 09:46:23;;;;;;;6.28;1.35;;;14.90;99.90;;;;;;4892501;29;20039;-70
2021/11/25 09:48:52;;;;;;;6.35;1.23;;;14.90;99.90;;;;;;4891336;29;20040;-71
2021/11/25 09:51:19;;;;;;;7.63;1.55;;;14.90;99.90;;;;;;4891432;29;20150;-71
2021/11/25 09:53:46;;;;;;;6.38;1.70;;;14.80;99.90;;;;;;4891825;29;20174;-70
2021/11/25 09:56:11;;;;;;;8.02;1.40;;;14.60;99.90;;;;;;4889844;29;20044;-71
2021/11/25 09:58:38;;;;;;;10.13;1.60;;;14.30;99.90;;;;;;4890310;29;20059;-71
2021/11/25 10:01:10;;;;;;;8.88;1.73;;;12.90;99.90;;;;;;4893070;29;20060;-71
2021/11/25 10:03:38;;;;;;;6.05;1.60;;;11.70;99.90;;;;;;4891987;29;20258;-71
2021/11/25 10:06:05;;;;;;;10.30;1.17;;;10.80;99.90;;;;;;4890569;29;20032;-71
2021/11/25 10:08:40;;;;;;;9.38;1.77;;;10.20;99.90;;;;;;4891023;29;20033;-71
2021/11/25 10:11:29;;;;;;;4.50;1.17;;;10.40;99.90;;;;;;4891294;29;20033;-71
2021/11/25 10:14:12;;;;;;;8.73;1.90;;;11.80;99.90;;;;;;4888851;29;20404;-71
2021/11/25 10:16:43;;;;;;;11.80;1.83;;;12.80;99.90;;;;;;4890743;29;20321;-71
2021/11/25 10:19:15;;;;;;;11.27;1.92;;;13.40;99.90;;;;;;4890731;29;20031;-71
2021/11/25 10:21:47;;;;;;;6.78;1.92;;;13.20;99.90;;;;;;4891790;29;20384;-71
2021/11/25 10:24:13;;;;;;;7.95;1.73;;;12.80;99.90;;;;;;4890832;29;20060;-71
2021/11/25 10:26:39;;;;;;;19.92;3.33;;;12.20;99.90;;;;;;4891543;29;20075;-71
2021/11/25 10:29:10;;;;;;;11.18;2.35;;;12.10;99.90;;;;;;4891455;29;20276;-71
2021/11/25 10:31:39;;;;;;;15.93;2.40;;;12.90;99.90;;;;;;4890546;29;20047;-71
2021/11/25 10:34:21;;;;;;;11.05;2.45;;;12.80;99.90;;;;;;4890559;29;20238;-71
2021/11/25 10:37:16;;;;;;;13.38;2.20;;;12.80;99.90;;;;;;4890926;29;20044;-71
2021/11/25 10:42:14;;;;;;;7.60;1.48;;;13.00;99.90;;;;;;4890951;29;20096;-71
2021/11/25 10:44:50;;;;;;;7.57;1.77;;;11.80;99.90;;;;;;4887246;29;20047;-71
2021/11/25 10:47:21;;;;;;;12.18;1.60;;;11.70;99.90;;;;;;4890999;29;20028;-71
2021/11/25 10:49:54;;;;;;;12.32;1.80;;;11.10;99.90;;;;;;4892166;29;20033;-71
2021/11/25 10:52:45;;;;;;;6.97;1.40;;;11.20;99.90;;;;;;4891195;29;20359;-71
2021/11/25 10:55:22;;;;;;;4.97;1.10;;;12.20;99.90;;;;;;4879220;29;20036;-71
2021/11/25 10:57:53;;;;;;;3.53;0.88;;;13.60;99.90;;;;;;4891167;29;20104;-71
2021/11/25 11:00:33;;;;;;;3.13;0.88;;;14.30;99.90;;;;;;4890689;29;20029;-71
2021/11/25 11:03:05;;;;;;;7.55;1.08;;;13.30;99.90;;;;;;4892093;29;20213;-71
2021/11/25 11:05:55;;;;;;;10.63;1.40;;;12.50;99.90;;;;;;4888437;29;20123;-71
2021/11/25 11:08:22;;;;;;;8.40;1.13;;;11.90;99.90;;;;;;4891539;29;20191;-71
2021/11/25 11:10:55;;;;;;;15.63;2.28;;;11.90;99.90;;;;;;4889346;29;20041;-71
2021/11/25 11:18:43;;;;;;;;;;;13.60;99.90;;;;;;4874204;29;20088;-71
2021/11/25 11:21:40;;;;;;;8.32;1.40;;;14.40;99.90;;;;;;4889662;29;19977;-71
2021/11/25 11:24:20;;;;;;;8.55;1.70;;;14.10;99.90;;;;;;4890869;29;20051;-71
2021/11/25 11:26:55;;;;;;;7.78;1.20;;;12.80;99.90;;;;;;4889347;29;20104;-71
2021/11/25 11:29:26;;;;;;;6.75;1.15;;;11.70;99.90;;;;;;4889762;29;20095;-71
2021/11/25 11:31:56;;;;;;;7.10;1.33;;;10.80;99.90;;;;;;4890242;29;20445;-71
2021/11/25 11:34:23;;;;;;;7.85;1.25;;;10.10;99.90;;;;;;4890666;29;20037;-71
2021/11/25 11:36:52;;;;;;;9.05;1.80;;;9.60;99.90;;;;;;4890751;29;20223;-71
2021/11/25 11:39:20;;;;;;;15.25;2.92;;;9.40;99.90;;;;;;4873846;29;20025;-71
2021/11/25 11:41:50;;;;;;;11.27;1.80;;;9.20;99.90;;;;;;4889198;29;20057;-71
2021/11/25 11:44:21;;;;;;;7.00;1.52;;;9.30;99.90;;;;;;4889310;29;20029;-71
2021/11/25 11:46:50;;;;;;;7.43;1.45;;;9.30;99.90;;;;;;4889276;29;20339;-71
2021/11/25 11:49:21;;;;;;;5.68;1.33;;;9.20;99.90;;;;;;4890385;29;20315;-71
2021/11/25 11:52:07;;;;;;;7.00;1.52;;;9.00;99.90;;;;;;4890271;29;20029;-71
2021/11/25 11:54:46;;;;;;;4.72;0.90;;;8.80;99.90;;;;;;4890715;29;20350;-71
2021/11/25 11:57:28;;;;;;;9.77;1.20;;;8.70;99.90;;;;;;4889458;29;20124;-71
2021/11/25 11:59:54;;;;;;;13.80;1.55;;;8.60;99.90;;;;;;4889004;29;20384;-71
2021/11/25 12:02:41;;;;;;;11.48;1.80;;;8.50;99.90;;;;;;4888701;29;20051;-71
2021/11/25 12:05:08;;;;;;;9.05;1.73;;;8.40;99.90;;;;;;4889165;29;20040;-71
2021/11/25 12:07:34;;;;;;;6.93;1.17;;;9.00;99.90;;;;;;4890077;29;20047;-71
2021/11/25 12:10:00;;;;;;;12.93;2.10;;;9.90;99.90;;;;;;4888549;29;20327;-71
2021/11/25 12:12:26;;;;;;;10.27;1.80;;;9.90;99.90;;;;;;4889029;29;20099;-71
2021/11/25 12:14:57;;;;;;;12.13;1.80;;;10.00;99.90;;;;;;4889180;29;20028;-71
2021/11/25 12:17:31;;;;;;;7.03;1.50;;;10.50;99.90;;;;;;4888869;29;20052;-71
2021/11/25 12:20:19;;;;;;;9.65;1.95;;;10.90;99.90;;;;;;4888891;29;20317;-71
2021/11/25 12:22:49;;;;;;;7.63;1.33;;;10.70;99.90;;;;;;4888525;29;20052;-71
2021/11/25 12:25:34;;;;;;;8.00;1.38;;;10.10;99.90;;;;;;4889197;29;20025;-71
2021/11/25 12:28:21;;;;;;;14.32;2.05;;;9.60;99.90;;;;;;4888743;29;20032;-71
2021/11/25 12:31:06;;;;;;;9.48;1.38;;;9.20;99.90;;;;;;4889286;29;20024;-71
2021/11/25 12:33:44;;;;;;;8.65;1.70;;;9.20;99.90;;;;;;4888051;29;20033;-71
2021/11/25 12:36:34;;;;;;;9.75;1.55;;;9.20;99.90;;;;;;4888224;29;20208;-71
2021/11/25 12:39:00;;;;;;;;;;;9.30;99.90;;;;;;4888206;29;20036;-71
2021/11/25 12:41:26;;;;;;;8.90;1.40;;;9.00;99.90;;;;;;4888012;29;19915;-71
2021/11/25 12:43:53;;;;;;;5.03;1.08;;;8.60;99.90;;;;;;4885764;29;20039;-71
2021/11/25 12:46:19;;;;;;;7.95;1.63;;;8.40;99.90;;;;;;4888994;29;20032;-71
2021/11/25 12:48:48;;;;;;;6.95;1.42;;;8.20;99.90;;;;;;4889300;29;20513;-71
2021/11/25 12:51:19;;;;;;;7.10;2.03;;;8.00;99.90;;;;;;4888594;29;20381;-71
2021/11/25 12:53:48;;;;;;;9.82;1.30;;;7.90;99.90;;;;;;4873144;29;20041;-71
2021/11/25 12:56:28;;;;;;;;;;;7.90;99.90;;;;;;4889455;29;20040;-71
2021/11/25 12:59:01;;;;;;;4.53;0.75;;;7.80;99.90;;;;;;4887707;29;20171;-71
2021/11/25 13:01:28;;;;;;;8.75;1.40;;;7.80;99.90;;;;;;4887831;29;20264;-71
2021/11/25 13:03:58;;;;;;;7.65;1.60;;;8.10;99.90;;;;;;4888196;29;20068;-71
2021/11/25 13:06:24;;;;;;;10.43;1.95;;;8.40;99.90;;;;;;4887799;29;20039;-71
2021/11/25 13:08:51;;;;;;;11.73;1.90;;;8.20;99.90;;;;;;4889696;29;20047;-71